Time;durP1;ratioP1;P1;durP2;ratioP2;P2;SDS_P1;SDS_P2;PMS_P1;PMS_P2;Temp;Humidity;BMP_temperature;BMP_pressure;BME280_temperature;BME280_humidity;BME280_pressure;Samples;Min_cycle;Max_cycle;Signal;HPM_P1;HPM_P2
2020/12/27 00:01:01;;;;;;;6.15;2.97;;;;;;;5.37;76.06;98652.31;6185644;23;20029;-85
2020/12/27 00:03:28;;;;;;;4.45;3.40;;;;;;;5.35;75.82;98655.00;6160081;23;20028;-84
2020/12/27 00:05:54;;;;;;;5.22;3.05;;;;;;;5.37;75.95;98646.25;6152961;23;20021;-84
2020/12/27 00:08:24;;;;;;;4.32;3.50;;;;;;;5.37;75.21;98627.97;6132597;23;20460;-85
2020/12/27 00:10:54;;;;;;;4.32;2.88;;;;;;;5.40;75.47;98631.28;6160161;23;20053;-83
2020/12/27 00:13:22;;;;;;;3.85;2.97;;;;;;;5.43;75.49;98622.44;6158316;23;20032;-87
2020/12/27 00:15:50;;;;;;;3.22;2.83;;;;;;;5.41;75.06;98614.69;6128708;23;20033;-85
2020/12/27 00:18:17;;;;;;;4.63;3.13;;;;;;;5.42;75.37;98610.31;6105169;23;20030;-85
2020/12/27 00:20:43;;;;;;;4.00;3.03;;;;;;;5.43;75.04;98598.97;6130454;23;20483;-83
2020/12/27 00:23:09;;;;;;;5.38;2.78;;;;;;;5.47;74.87;98588.25;6129246;23;20356;-84
2020/12/27 00:25:39;;;;;;;5.05;2.60;;;;;;;5.48;74.70;98604.75;6105830;23;20022;-84
2020/12/27 00:28:05;;;;;;;5.25;2.85;;;;;;;5.52;75.42;98603.66;6132548;23;20026;-84
2020/12/27 00:30:31;;;;;;;4.35;2.75;;;;;;;5.54;75.54;98594.00;6106572;23;20026;-84
2020/12/27 00:32:57;;;;;;;3.20;2.28;;;;;;;5.56;75.05;98592.13;6128982;23;20022;-85
2020/12/27 00:35:24;;;;;;;3.67;2.60;;;;;;;5.57;75.15;98569.50;6108398;23;20014;-85
2020/12/27 00:37:50;;;;;;;3.22;2.40;;;;;;;5.59;74.94;98571.09;6131685;23;20026;-84
2020/12/27 00:40:16;;;;;;;5.43;2.72;;;;;;;5.61;74.86;98552.72;6131861;23;20027;-85
2020/12/27 00:42:44;;;;;;;2.65;2.20;;;;;;;5.65;74.97;98558.63;6104131;23;20081;-86
2020/12/27 00:45:10;;;;;;;5.97;2.47;;;;;;;5.65;74.92;98537.72;6129149;23;20053;-84
2020/12/27 00:47:39;;;;;;;3.03;2.05;;;;;;;5.67;74.69;98505.38;6131453;23;20033;-83
2020/12/27 00:50:06;;;;;;;2.22;2.03;;;;;;;5.71;75.31;98512.13;6106871;23;20063;-86
2020/12/27 00:52:32;;;;;;;4.28;2.83;;;;;;;5.73;74.62;98519.88;6130930;23;20032;-83
2020/12/27 00:54:58;;;;;;;4.93;2.50;;;;;;;5.70;74.18;98492.16;6131950;23;20025;-83
2020/12/27 00:57:24;;;;;;;2.97;2.05;;;;;;;5.72;74.33;98499.91;6133019;23;20022;-84
2020/12/27 00:59:50;;;;;;;4.93;2.38;;;;;;;5.74;74.59;98493.66;6129722;23;20033;-86
2020/12/27 01:02:16;;;;;;;2.30;2.10;;;;;;;5.75;74.89;98491.88;6130145;23;20117;-86
2020/12/27 01:04:42;;;;;;;2.38;1.95;;;;;;;5.77;74.71;98484.81;6130895;23;20022;-83
2020/12/27 01:07:09;;;;;;;2.67;1.90;;;;;;;5.78;74.50;98485.63;6103525;23;20025;-83
2020/12/27 01:09:35;;;;;;;2.33;1.90;;;;;;;5.77;74.36;98474.38;6131159;23;20026;-85
2020/12/27 01:12:01;;;;;;;2.55;2.30;;;;;;;5.77;74.39;98469.16;6103104;23;20457;-83
2020/12/27 01:14:27;;;;;;;2.92;2.03;;;;;;;5.80;74.66;98452.47;6129131;23;20041;-84
2020/12/27 01:16:53;;;;;;;4.82;2.20;;;;;;;5.80;74.32;98434.19;6134195;23;20029;-86
2020/12/27 01:19:19;;;;;;;3.00;1.88;;;;;;;5.83;74.50;98437.44;6129010;23;20327;-86
2020/12/27 01:21:45;;;;;;;2.95;1.90;;;;;;;5.83;74.29;98434.81;6131285;23;20033;-85
2020/12/27 01:24:13;;;;;;;2.25;1.60;;;;;;;5.83;74.37;98429.59;6105506;23;20022;-84
2020/12/27 01:26:41;;;;;;;2.58;2.00;;;;;;;5.84;73.73;98427.84;6132374;23;20033;-83
2020/12/27 01:29:08;;;;;;;2.05;1.77;;;;;;;5.89;74.30;98415.34;6130431;23;20054;-87
2020/12/27 01:31:34;;;;;;;4.28;1.98;;;;;;;5.89;73.96;98398.81;6104346;23;20022;-86
2020/12/27 01:34:00;;;;;;;2.00;1.80;;;;;;;5.90;73.16;98400.53;6105626;23;20471;-83
2020/12/27 01:36:31;;;;;;;3.92;1.90;;;;;;;5.86;73.06;98392.88;6132130;23;20033;-83
2020/12/27 01:38:58;;;;;;;1.92;1.70;;;;;;;5.84;72.61;98373.81;6129929;23;20026;-83
2020/12/27 01:41:25;;;;;;;3.53;1.70;;;;;;;5.86;73.30;98369.38;6132337;23;20028;-83
2020/12/27 01:44:03;;;;;;;2.60;1.80;;;;;;;5.82;70.29;98340.91;6131506;23;20033;-86
2020/12/27 01:46:32;;;;;;;1.92;1.70;;;;;;;5.86;72.75;98342.41;6131701;23;20026;-85
2020/12/27 01:48:58;;;;;;;1.90;1.58;;;;;;;5.86;72.24;98355.47;6128163;23;20025;-85
2020/12/27 01:51:24;;;;;;;2.67;1.88;;;;;;;5.85;72.48;98345.94;6132403;23;20055;-82
2020/12/27 01:53:52;;;;;;;2.60;1.67;;;;;;;5.86;72.64;98331.97;6131662;23;20465;-84
2020/12/27 01:56:27;;;;;;;2.05;1.65;;;;;;;5.84;72.30;98321.59;6107249;23;20077;-83
2020/12/27 01:59:01;;;;;;;2.63;1.30;;;;;;;5.83;71.14;98330.38;6104619;23;20032;-85
2020/12/27 02:01:31;;;;;;;1.77;1.40;;;;;;;5.86;71.96;98301.47;6105677;23;20471;-84
2020/12/27 02:03:59;;;;;;;3.25;1.85;;;;;;;5.82;71.59;98289.53;6129897;23;20032;-85
2020/12/27 02:06:26;;;;;;;4.55;1.52;;;;;;;5.83;72.35;98279.94;6132442;23;20101;-84
2020/12/27 02:08:52;;;;;;;3.28;1.70;;;;;;;5.80;71.80;98275.72;6106294;23;20033;-83
2020/12/27 02:11:23;;;;;;;1.77;1.48;;;;;;;5.81;71.01;98260.91;6106555;23;20022;-84
2020/12/27 02:13:56;;;;;;;2.78;1.60;;;;;;;5.79;71.72;98254.94;6106779;23;20025;-83
2020/12/27 02:16:24;;;;;;;;;;;;;;;5.79;68.55;98253.16;6106629;23;20026;-85
2020/12/27 02:18:52;;;;;;;2.63;1.98;;;;;;;5.76;71.18;98247.28;6130169;23;20264;-85
2020/12/27 02:21:18;;;;;;;1.75;1.42;;;;;;;5.77;71.63;98241.97;6106425;23;20022;-83
2020/12/27 02:23:48;;;;;;;1.58;1.40;;;;;;;5.71;71.57;98247.56;6129835;23;20359;-86
2020/12/27 02:26:15;;;;;;;2.05;1.73;;;;;;;5.73;72.25;98248.31;6131579;23;20022;-83
2020/12/27 02:28:43;;;;;;;2.60;1.63;;;;;;;5.66;70.96;98228.75;6131661;23;20021;-83
2020/12/27 02:31:11;;;;;;;3.00;1.73;;;;;;;5.66;70.87;98239.19;6132571;23;20025;-83
2020/12/27 02:33:37;;;;;;;2.17;1.80;;;;;;;5.67;71.41;98219.97;6128907;23;20026;-83
2020/12/27 02:36:07;;;;;;;2.30;1.58;;;;;;;5.69;72.02;98215.50;6107269;23;20353;-84
2020/12/27 02:38:33;;;;;;;2.08;1.48;;;;;;;5.64;70.55;98196.69;6106222;23;20024;-85
2020/12/27 02:41:00;;;;;;;2.28;1.70;;;;;;;5.61;71.19;98182.88;6132544;23;20029;-85
2020/12/27 02:43:26;;;;;;;1.73;1.40;;;;;;;5.59;70.97;98200.41;6132210;23;20030;-83
2020/12/27 02:45:52;;;;;;;3.88;1.75;;;;;;;5.60;71.13;98189.03;6130846;23;20030;-86
2020/12/27 02:48:18;;;;;;;4.32;1.60;;;;;;;5.60;71.79;98164.69;6128596;23;20026;-86
2020/12/27 02:50:44;;;;;;;2.22;1.48;;;;;;;5.60;71.23;98167.28;6128271;23;20030;-85
2020/12/27 02:53:11;;;;;;;2.13;1.50;;;;;;;5.59;71.25;98169.09;6133167;23;20025;-85
2020/12/27 02:55:38;;;;;;;2.15;1.67;;;;;;;5.52;70.67;98144.28;6107263;23;20022;-85
2020/12/27 02:58:04;;;;;;;3.28;1.65;;;;;;;5.52;71.21;98141.69;6107280;23;20033;-84
2020/12/27 03:00:32;;;;;;;4.07;1.25;;;;;;;5.49;70.72;98147.09;6108543;23;20050;-86
2020/12/27 03:02:58;;;;;;;2.50;1.45;;;;;;;5.47;70.85;98135.91;6105592;23;20022;-83
2020/12/27 03:05:24;;;;;;;2.65;1.58;;;;;;;5.48;70.95;98155.84;6131866;23;20364;-85
2020/12/27 03:07:50;;;;;;;3.85;1.60;;;;;;;5.48;70.74;98114.94;6133604;23;20026;-86
2020/12/27 03:10:16;;;;;;;1.42;1.33;;;;;;;5.46;70.11;98100.31;6107887;23;20030;-86
2020/12/27 03:12:46;;;;;;;2.05;1.33;;;;;;;5.48;71.40;98082.78;6129243;23;20030;-84
2020/12/27 03:15:15;;;;;;;1.90;1.25;;;;;;;5.50;70.65;98087.91;6130307;23;20014;-85
2020/12/27 03:17:41;;;;;;;2.08;1.50;;;;;;;5.51;71.25;98087.81;6131992;23;20033;-83
2020/12/27 03:20:16;;;;;;;1.38;1.15;;;;;;;5.45;70.57;98052.50;6129071;23;20022;-86
2020/12/27 03:22:43;;;;;;;2.38;1.13;;;;;;;5.48;70.92;98047.09;6130493;23;20034;-83
2020/12/27 03:25:12;;;;;;;2.85;1.40;;;;;;;5.52;71.26;98042.50;6105256;23;20389;-83
2020/12/27 03:27:41;;;;;;;4.05;1.27;;;;;;;5.49;69.72;98063.56;6132407;23;20026;-86
2020/12/27 03:30:07;;;;;;;1.33;1.20;;;;;;;5.47;70.10;98024.53;6131268;23;20026;-85
2020/12/27 03:32:33;;;;;;;1.42;1.30;;;;;;;5.53;70.58;98027.69;6130841;23;20487;-86
2020/12/27 03:34:59;;;;;;;2.00;1.05;;;;;;;5.52;70.92;98015.56;6129045;23;20018;-84
2020/12/27 03:37:25;;;;;;;1.67;1.30;;;;;;;5.56;71.31;98002.22;6129381;23;20353;-84
2020/12/27 03:39:51;;;;;;;1.73;1.00;;;;;;;5.56;70.76;97988.34;6105046;23;20082;-84
2020/12/27 03:42:23;;;;;;;1.92;1.20;;;;;;;5.58;71.09;97989.91;6129761;23;20033;-86
2020/12/27 03:44:49;;;;;;;1.52;1.25;;;;;;;5.57;71.05;97998.69;6105932;23;20085;-84
2020/12/27 03:47:16;;;;;;;1.27;0.98;;;;;;;5.59;70.77;97957.66;6129549;23;20025;-84
2020/12/27 03:49:42;;;;;;;1.55;0.90;;;;;;;5.57;70.17;97956.91;6129635;23;20029;-86
2020/12/27 03:52:08;;;;;;;1.17;0.90;;;;;;;5.59;69.96;97954.22;6132449;23;20028;-85
2020/12/27 03:54:34;;;;;;;2.58;0.80;;;;;;;5.58;70.50;97978.66;6104440;23;20025;-85
2020/12/27 03:57:00;;;;;;;2.08;0.90;;;;;;;5.59;71.07;97928.94;6130296;23;20026;-83
2020/12/27 03:59:26;;;;;;;1.05;0.90;;;;;;;5.60;69.99;97937.59;6131760;23;20032;-86
2020/12/27 04:01:52;;;;;;;1.92;1.00;;;;;;;5.65;70.61;97912.06;6128596;23;20036;-84
2020/12/27 04:04:18;;;;;;;1.25;1.13;;;;;;;5.67;70.49;97878.00;6128321;23;20022;-85
2020/12/27 04:07:01;;;;;;;1.05;0.85;;;;;;;5.69;70.40;97910.06;6129426;23;20022;-84
2020/12/27 04:09:27;;;;;;;2.00;1.00;;;;;;;5.70;70.40;97869.97;6129795;23;20022;-85
2020/12/27 04:11:53;;;;;;;1.02;0.85;;;;;;;5.72;69.83;97874.13;6105662;23;20041;-84
2020/12/27 04:14:19;;;;;;;2.78;1.20;;;;;;;5.72;70.21;97855.06;6129973;23;20026;-83
2020/12/27 04:16:45;;;;;;;0.80;0.80;;;;;;;5.73;70.39;97849.69;6131922;23;20365;-83
2020/12/27 04:19:11;;;;;;;2.40;1.00;;;;;;;5.71;69.75;97858.56;6133164;23;20102;-83
2020/12/27 04:21:37;;;;;;;1.77;1.05;;;;;;;5.71;68.95;97853.34;6129916;23;20026;-84
2020/12/27 04:24:07;;;;;;;2.70;0.88;;;;;;;5.76;70.22;97837.38;6130407;23;20028;-84
2020/12/27 04:26:34;;;;;;;1.40;0.80;;;;;;;5.78;69.78;97853.78;6102598;23;20026;-84
2020/12/27 04:29:00;;;;;;;1.17;0.98;;;;;;;5.82;70.05;97848.25;6132422;23;20081;-86
2020/12/27 04:31:26;;;;;;;1.05;0.82;;;;;;;5.85;70.53;97813.25;6128677;23;20022;-86
2020/12/27 04:33:56;;;;;;;1.00;0.80;;;;;;;5.83;69.92;97783.81;6128847;23;20037;-84
2020/12/27 04:36:23;;;;;;;3.67;0.70;;;;;;;5.84;70.08;97795.94;6103256;23;20062;-83
2020/12/27 04:38:52;;;;;;;1.30;0.80;;;;;;;5.86;69.92;97787.03;6130230;23;20026;-84
2020/12/27 04:41:19;;;;;;;1.67;1.05;;;;;;;5.88;70.21;97792.16;6131185;23;20032;-86
2020/12/27 04:43:47;;;;;;;2.65;1.10;;;;;;;5.82;67.92;97784.75;6103876;23;20033;-85
2020/12/27 04:46:14;;;;;;;0.70;0.70;;;;;;;5.85;69.83;97761.88;6103980;23;20022;-84
2020/12/27 04:48:44;;;;;;;1.17;0.70;;;;;;;5.85;68.15;97780.16;6128851;23;20073;-85
2020/12/27 04:51:12;;;;;;;0.80;0.77;;;;;;;5.86;68.75;97774.00;6127367;23;20033;-85
2020/12/27 04:53:39;;;;;;;1.00;0.80;;;;;;;5.87;69.43;97764.38;6103686;23;20025;-83
2020/12/27 04:56:07;;;;;;;1.33;0.70;;;;;;;5.92;69.40;97764.06;6127939;23;20022;-84
2020/12/27 04:58:33;;;;;;;1.48;0.80;;;;;;;5.94;69.86;97754.34;6101383;23;20516;-84
2020/12/27 05:01:03;;;;;;;2.67;0.80;;;;;;;5.95;68.59;97749.00;6128923;23;20032;-85
2020/12/27 05:03:31;;;;;;;0.70;0.70;;;;;;;5.91;67.56;97733.66;6131155;23;20026;-84
2020/12/27 05:05:57;;;;;;;3.42;1.00;;;;;;;5.93;68.74;97723.94;6131435;23;20025;-85
2020/12/27 05:08:24;;;;;;;0.85;0.70;;;;;;;5.96;68.94;97705.44;6133515;23;20026;-86
2020/12/27 05:10:50;;;;;;;1.65;0.93;;;;;;;5.95;69.03;97703.78;6131426;23;20029;-85
2020/12/27 05:13:18;;;;;;;0.70;0.70;;;;;;;5.94;67.56;97770.84;6131975;23;20036;-86
2020/12/27 05:15:45;;;;;;;2.15;0.88;;;;;;;5.91;68.30;97695.31;6133396;23;20488;-84
2020/12/27 05:18:12;;;;;;;1.15;0.80;;;;;;;5.93;68.52;97693.44;6131641;23;20455;-84
2020/12/27 05:20:43;;;;;;;1.08;0.68;;;;;;;5.98;68.91;97674.84;6130579;23;20022;-84
2020/12/27 05:23:10;;;;;;;1.45;0.80;;;;;;;6.00;69.56;97673.78;6105999;23;20022;-84
2020/12/27 05:25:38;;;;;;;0.80;0.80;;;;;;;5.99;69.25;97656.44;6130104;23;20029;-86
2020/12/27 05:28:07;;;;;;;0.95;0.65;;;;;;;6.01;68.78;97658.94;6104962;23;20032;-84
2020/12/27 05:30:34;;;;;;;1.35;0.70;;;;;;;6.05;69.51;97636.09;6105447;23;20026;-85
2020/12/27 05:33:00;;;;;;;1.60;0.77;;;;;;;5.99;67.95;97694.78;6132390;23;20353;-86
2020/12/27 05:35:29;;;;;;;2.35;0.80;;;;;;;6.01;68.79;97664.16;6130684;23;20021;-85
2020/12/27 05:38:01;;;;;;;0.95;0.80;;;;;;;6.06;68.88;97658.66;6130966;23;20504;-85
2020/12/27 05:40:40;;;;;;;0.60;0.60;;;;;;;6.03;67.12;97669.28;6107341;23;20022;-85
2020/12/27 05:43:17;;;;;;;0.85;0.75;;;;;;;6.04;67.41;97635.25;6131597;23;20022;-87
2020/12/27 05:45:45;;;;;;;0.80;0.80;;;;;;;6.05;68.44;97628.25;6104846;23;20353;-85
2020/12/27 05:48:11;;;;;;;1.35;0.75;;;;;;;6.07;69.09;97628.97;6106024;23;20349;-84
2020/12/27 05:50:39;;;;;;;1.30;0.60;;;;;;;6.08;68.25;97601.88;6106527;23;20026;-86
2020/12/27 05:53:24;;;;;;;1.00;0.70;;;;;;;6.05;65.72;97604.75;6128841;23;20097;-84
2020/12/27 05:55:52;;;;;;;1.17;0.68;;;;;;;6.04;66.39;97606.50;6130705;23;20341;-85
2020/12/27 05:58:22;;;;;;;1.08;0.70;;;;;;;6.10;68.43;97594.78;6104161;23;20026;-84
2020/12/27 06:00:56;;;;;;;0.50;0.50;;;;;;;6.12;68.22;97583.28;6133015;23;20057;-86
2020/12/27 06:03:28;;;;;;;0.52;0.52;;;;;;;6.11;66.77;97580.78;6106161;23;20045;-83
2020/12/27 06:05:54;;;;;;;1.50;0.52;;;;;;;6.13;67.67;97618.06;6155208;23;20025;-85
2020/12/27 06:08:30;;;;;;;0.98;0.73;;;;;;;6.11;66.08;97568.56;6133531;23;20045;-85
2020/12/27 06:10:58;;;;;;;1.15;0.68;;;;;;;6.13;67.36;97561.44;6158917;23;20026;-84
2020/12/27 06:14:02;;;;;;;0.68;0.57;;;;;;;6.10;65.54;97539.94;6133414;23;20037;-85
2020/12/27 06:16:46;;;;;;;1.38;0.60;;;;;;;6.15;67.67;97531.75;6157869;23;20017;-86
2020/12/27 06:19:27;;;;;;;1.58;0.70;;;;;;;6.18;68.16;97518.47;6159278;23;20060;-85
2020/12/27 06:22:04;;;;;;;0.52;0.50;;;;;;;6.19;67.01;97513.13;6157450;23;20028;-85
2020/12/27 06:24:31;;;;;;;0.50;0.50;;;;;;;6.22;68.35;97497.22;6158908;23;20456;-86
2020/12/27 06:26:58;;;;;;;0.70;0.47;;;;;;;6.20;67.39;97499.09;6159277;23;20088;-85
2020/12/27 06:29:52;;;;;;;1.40;0.50;;;;;;;6.20;65.66;97459.91;6158622;23;20058;-85
2020/12/27 06:32:24;;;;;;;1.02;0.60;;;;;;;6.20;66.48;97480.81;6158108;23;20456;-85
2020/12/27 06:34:50;;;;;;;1.27;0.70;;;;;;;6.21;68.58;97458.97;6157741;23;20029;-86
2020/12/27 06:37:17;;;;;;;0.80;0.60;;;;;;;6.25;68.96;97451.75;6158961;23;20030;-86
2020/12/27 06:39:45;;;;;;;0.63;0.50;;;;;;;6.24;68.33;97444.84;6158917;23;20333;-86
2020/12/27 06:42:18;;;;;;;1.92;0.50;;;;;;;6.25;67.67;97451.75;6156170;23;20017;-85
2020/12/27 06:44:46;;;;;;;0.95;0.60;;;;;;;6.25;67.69;97436.06;6157374;23;20384;-86
2020/12/27 06:47:13;;;;;;;0.98;0.57;;;;;;;6.25;68.09;97404.72;6157214;23;20033;-85
2020/12/27 06:49:40;;;;;;;0.45;0.45;;;;;;;6.24;67.15;97426.53;6157122;23;20025;-84
2020/12/27 06:52:23;;;;;;;0.63;0.40;;;;;;;6.20;65.76;97394.63;6158090;23;20037;-85
2020/12/27 06:54:50;;;;;;;;;;;;;;;6.19;63.79;97420.84;6158561;23;20018;-85
2020/12/27 06:57:45;;;;;;;1.35;0.55;;;;;;;6.22;64.05;97394.50;6158443;23;19921;-85
2020/12/27 07:00:19;;;;;;;0.68;0.47;;;;;;;6.21;66.23;97395.47;6159213;23;20022;-86
2020/12/27 07:02:45;;;;;;;1.80;0.60;;;;;;;6.20;66.53;97375.50;6157635;23;20036;-85
2020/12/27 07:05:31;;;;;;;0.70;0.63;;;;;;;6.20;65.14;97386.78;6164842;23;20094;-85
2020/12/27 07:08:02;;;;;;;1.10;0.52;;;;;;;6.26;68.77;97346.28;6188159;23;20028;-85
2020/12/27 07:10:30;;;;;;;1.40;0.60;;;;;;;6.21;67.55;97354.47;6162712;23;20027;-84
2020/12/27 07:13:11;;;;;;;0.52;0.50;;;;;;;6.23;65.71;97336.06;6187305;23;20030;-85
2020/12/27 07:15:58;;;;;;;0.50;0.50;;;;;;;6.23;65.79;97328.22;6161461;23;20021;-86
2020/12/27 07:18:27;;;;;;;0.80;0.63;;;;;;;6.28;68.38;97331.31;6188029;23;20025;-86
2020/12/27 07:20:58;;;;;;;1.17;0.50;;;;;;;6.29;67.55;97319.94;6162509;23;20028;-86
2020/12/27 07:23:28;;;;;;;0.88;0.50;;;;;;;6.30;68.33;97312.91;6162134;23;20482;-86
2020/12/27 07:26:03;;;;;;;0.60;0.57;;;;;;;6.25;65.43;97321.13;6163294;23;20021;-85
2020/12/27 07:28:30;;;;;;;0.77;0.52;;;;;;;6.26;68.60;97294.03;6189177;23;20025;-86
2020/12/27 07:31:01;;;;;;;1.80;0.77;;;;;;;6.24;66.32;97288.09;6162341;23;20076;-86
2020/12/27 07:33:37;;;;;;;1.00;0.70;;;;;;;6.25;66.63;97292.38;6163060;23;20032;-85
2020/12/27 07:36:08;;;;;;;4.50;0.75;;;;;;;6.26;68.11;97273.13;6187255;23;20036;-86
2020/12/27 07:38:53;;;;;;;2.22;0.75;;;;;;;6.23;66.20;97262.94;6162464;23;20021;-85
2020/12/27 07:41:28;;;;;;;0.73;0.70;;;;;;;6.24;67.02;97281.09;6162117;23;20025;-86
2020/12/27 07:43:58;;;;;;;0.98;0.70;;;;;;;6.24;68.39;97264.56;6189291;23;20024;-86
2020/12/27 07:46:26;;;;;;;0.70;0.50;;;;;;;6.23;68.58;97245.47;6162574;23;20071;-85
2020/12/27 07:48:54;;;;;;;0.68;0.57;;;;;;;6.21;67.37;97243.94;6187711;23;20043;-84
2020/12/27 07:51:23;;;;;;;0.63;0.60;;;;;;;6.21;68.38;97238.72;6189705;23;20021;-85
2020/12/27 07:53:51;;;;;;;0.75;0.70;;;;;;;6.19;68.02;97269.34;6188558;23;20045;-86
2020/12/27 07:56:19;;;;;;;0.50;0.50;;;;;;;6.20;68.41;97232.66;6162800;23;20017;-86
2020/12/27 07:58:58;;;;;;;0.60;0.60;;;;;;;6.22;65.82;97232.53;6162661;23;20029;-85
2020/12/27 08:01:30;;;;;;;0.57;0.57;;;;;;;6.21;68.07;97220.44;6188578;23;20021;-86
2020/12/27 08:04:00;;;;;;;0.60;0.60;;;;;;;6.23;68.12;97201.06;6163008;23;20029;-86
2020/12/27 08:06:29;;;;;;;1.35;0.55;;;;;;;6.29;68.72;97191.06;6161459;23;20028;-86
2020/12/27 08:09:03;;;;;;;2.65;0.77;;;;;;;6.25;65.75;97187.88;6189142;23;20025;-85
2020/12/27 08:11:31;;;;;;;1.23;0.60;;;;;;;6.28;67.54;97216.34;6161929;23;20036;-85
2020/12/27 08:13:59;;;;;;;2.38;0.73;;;;;;;6.35;68.33;97194.00;6188275;23;20021;-85
2020/12/27 08:16:27;;;;;;;1.02;0.70;;;;;;;6.33;66.87;97169.81;6162036;23;20486;-85
2020/12/27 08:19:06;;;;;;;0.63;0.57;;;;;;;6.28;66.11;97160.69;6163127;23;20376;-85
2020/12/27 08:21:34;;;;;;;0.77;0.50;;;;;;;6.35;68.37;97147.00;6186891;23;20021;-86
2020/12/27 08:24:16;;;;;;;0.52;0.52;;;;;;;6.35;68.40;97120.84;6165151;23;20048;-86
2020/12/27 08:26:45;;;;;;;0.90;0.70;;;;;;;6.28;67.81;97147.63;6188459;23;20452;-85
2020/12/27 08:29:12;;;;;;;2.38;0.70;;;;;;;6.31;68.15;97134.31;6160632;23;20455;-86
2020/12/27 08:31:39;;;;;;;1.08;0.60;;;;;;;6.28;67.77;97131.94;6160745;23;20029;-84
2020/12/27 08:34:06;;;;;;;1.08;0.50;;;;;;;6.29;68.79;97116.16;6160309;23;20029;-86
2020/12/27 08:36:32;;;;;;;0.90;0.57;;;;;;;6.29;68.19;97129.22;6160987;23;20021;-85
2020/12/27 08:39:05;;;;;;;0.55;0.52;;;;;;;6.27;67.42;97107.59;6188314;23;20093;-86
2020/12/27 08:41:37;;;;;;;0.40;0.40;;;;;;;6.25;68.05;97086.00;6162803;23;20025;-86
2020/12/27 08:44:37;;;;;;;0.50;0.50;;;;;;;6.24;68.32;97077.34;6163092;23;20037;-87
2020/12/27 08:47:04;;;;;;;1.13;0.57;;;;;;;6.29;69.24;97056.06;6157244;23;20028;-87
2020/12/27 08:49:36;;;;;;;0.50;0.50;;;;;;;6.25;67.03;97102.50;6163026;23;20344;-86
2020/12/27 08:52:23;;;;;;;0.63;0.63;;;;;;;6.25;66.68;97059.88;6188970;23;20025;-85
2020/12/27 08:54:54;;;;;;;0.50;0.50;;;;;;;6.30;68.87;97052.50;6188386;23;20021;-85
2020/12/27 08:57:22;;;;;;;0.93;0.50;;;;;;;6.28;68.30;97059.59;6189886;23;20028;-85
2020/12/27 09:00:11;;;;;;;0.50;0.50;;;;;;;6.29;66.49;97035.16;6189068;23;20028;-86
2020/12/27 09:02:38;;;;;;;0.60;0.50;;;;;;;6.27;67.63;97034.44;6187414;23;20025;-85
2020/12/27 09:05:14;;;;;;;0.50;0.50;;;;;;;6.34;69.10;97011.25;6188618;23;20329;-86
2020/12/27 09:07:42;;;;;;;0.50;0.50;;;;;;;6.41;69.47;97029.84;6162577;23;20028;-86
2020/12/27 09:10:29;;;;;;;0.85;0.55;;;;;;;6.42;68.15;97021.06;6188655;23;20021;-86
2020/12/27 09:13:00;;;;;;;3.33;1.25;;;;;;;6.39;65.96;96986.41;6162710;23;20032;-84
2020/12/27 09:15:32;;;;;;;0.45;0.40;;;;;;;6.46;66.94;96998.94;6188414;23;20021;-86
2020/12/27 09:18:02;;;;;;;0.35;0.35;;;;;;;6.50;68.63;96984.66;6188619;23;20079;-87
2020/12/27 09:20:30;;;;;;;0.47;0.47;;;;;;;6.51;67.43;96999.38;6162755;23;20100;-86
2020/12/27 09:22:56;;;;;;;0.40;0.40;;;;;;;6.56;68.58;96971.06;6186782;23;20047;-86
2020/12/27 09:25:24;;;;;;;0.40;0.40;;;;;;;6.55;67.81;96985.09;6188469;23;20021;-85
2020/12/27 09:27:52;;;;;;;0.77;0.40;;;;;;;6.60;68.11;97003.00;6161819;23;20025;-84
2020/12/27 09:30:22;;;;;;;0.40;0.35;;;;;;;6.60;68.16;96966.41;6187967;23;20052;-87
2020/12/27 09:32:48;;;;;;;1.30;0.60;;;;;;;6.64;68.76;96954.72;6162071;23;20028;-87
2020/12/27 09:35:19;;;;;;;0.98;0.40;;;;;;;6.65;66.86;96962.44;6188435;23;20029;-85
2020/12/27 09:37:45;;;;;;;1.30;0.63;;;;;;;6.69;68.25;96941.25;6187147;23;20032;-86
2020/12/27 09:40:15;;;;;;;0.95;0.47;;;;;;;6.69;66.55;96951.72;6162754;23;20025;-86
2020/12/27 09:42:42;;;;;;;1.33;0.50;;;;;;;6.68;67.84;96948.28;6162499;23;20352;-86
2020/12/27 09:45:23;;;;;;;0.73;0.50;;;;;;;6.65;64.34;96943.31;6162289;23;20375;-86
2020/12/27 09:47:51;;;;;;;0.93;0.65;;;;;;;6.73;67.05;96945.28;6162269;23;20028;-85
2020/12/27 09:50:25;;;;;;;0.50;0.50;;;;;;;6.70;67.15;96914.16;6189577;23;20028;-86
2020/12/27 09:52:51;;;;;;;0.55;0.52;;;;;;;6.80;68.06;96948.19;6188445;23;20032;-86
2020/12/27 09:55:17;;;;;;;0.47;0.40;;;;;;;6.81;68.18;96939.38;6162354;23;20023;-86
2020/12/27 09:57:43;;;;;;;1.42;0.60;;;;;;;6.79;67.72;96926.41;6163050;23;20028;-86
2020/12/27 10:00:09;;;;;;;0.63;0.40;;;;;;;6.82;67.68;96954.94;6162608;23;20021;-85
2020/12/27 10:02:35;;;;;;;0.77;0.50;;;;;;;6.80;67.71;96893.28;6189508;23;20040;-86
2020/12/27 10:05:02;;;;;;;0.77;0.50;;;;;;;6.82;67.12;96886.09;6188094;23;20025;-85
2020/12/27 10:07:28;;;;;;;0.50;0.50;;;;;;;6.78;67.73;96888.19;6162769;23;20347;-85
2020/12/27 10:09:54;;;;;;;0.50;0.50;;;;;;;6.77;68.15;96878.69;6162233;23;20036;-87
2020/12/27 10:12:21;;;;;;;0.63;0.50;;;;;;;6.74;68.19;96868.50;6187327;23;20456;-86
2020/12/27 10:14:48;;;;;;;2.10;0.70;;;;;;;6.68;67.86;96901.22;6188570;23;20021;-86
2020/12/27 10:17:14;;;;;;;2.50;0.40;;;;;;;6.68;68.34;96848.94;6186500;23;20032;-87
2020/12/27 10:19:40;;;;;;;0.70;0.60;;;;;;;6.65;68.63;96855.28;6188088;23;20021;-84
2020/12/27 10:22:07;;;;;;;0.90;0.50;;;;;;;6.61;68.64;96879.19;6186558;23;20025;-84
2020/12/27 10:24:33;;;;;;;0.50;0.50;;;;;;;6.59;69.18;96839.31;6186637;23;20490;-84
2020/12/27 10:27:02;;;;;;;0.50;0.50;;;;;;;6.56;69.10;96813.44;6160813;23;20021;-83
2020/12/27 10:29:29;;;;;;;0.70;0.68;;;;;;;6.54;69.16;96812.75;6185174;23;20032;-83
2020/12/27 10:31:57;;;;;;;0.93;0.60;;;;;;;6.47;68.96;96826.34;6187028;23;20028;-84
2020/12/27 10:34:24;;;;;;;1.30;0.80;;;;;;;6.47;69.30;96822.91;6160863;23;20388;-84
2020/12/27 10:36:52;;;;;;;1.48;0.40;;;;;;;6.46;69.36;96806.41;6186826;23;20388;-84
2020/12/27 10:39:19;;;;;;;0.95;0.60;;;;;;;6.43;69.50;96803.25;6186947;23;20088;-84
2020/12/27 10:41:47;;;;;;;0.40;0.40;;;;;;;6.42;69.37;96791.16;6160965;23;20060;-84
2020/12/27 10:44:13;;;;;;;0.50;0.50;;;;;;;6.35;69.65;96773.38;6186665;23;20021;-83
2020/12/27 10:46:39;;;;;;;0.50;0.50;;;;;;;6.33;69.59;96769.25;6162396;23;20017;-86
2020/12/27 10:49:06;;;;;;;0.55;0.45;;;;;;;6.35;70.30;96762.94;6161134;23;20472;-83
2020/12/27 10:51:39;;;;;;;0.40;0.40;;;;;;;6.36;70.09;96759.34;6186647;23;20025;-84
2020/12/27 10:54:07;;;;;;;0.50;0.50;;;;;;;6.36;70.81;96764.56;6186527;23;20028;-84
2020/12/27 10:56:33;;;;;;;0.40;0.40;;;;;;;6.33;70.11;96757.03;6160111;23;20480;-85
2020/12/27 10:59:00;;;;;;;1.48;0.47;;;;;;;6.33;70.89;96749.19;6160826;23;20021;-84
2020/12/27 11:01:26;;;;;;;0.88;0.77;;;;;;;6.32;70.48;96737.06;6186313;23;20025;-84
2020/12/27 11:03:53;;;;;;;1.13;0.80;;;;;;;6.29;70.40;96726.91;6160151;23;20032;-85
2020/12/27 11:06:19;;;;;;;0.85;0.55;;;;;;;6.31;70.41;96726.78;6186421;23;20017;-85
2020/12/27 11:08:45;;;;;;;1.00;0.30;;;;;;;6.32;70.87;96712.75;6187090;23;20021;-84
2020/12/27 11:11:11;;;;;;;0.57;0.57;;;;;;;6.33;70.83;96709.16;6186953;23;20025;-85
2020/12/27 11:13:37;;;;;;;0.50;0.45;;;;;;;6.31;70.95;96714.53;6160651;23;20351;-86
2020/12/27 11:16:03;;;;;;;0.95;0.50;;;;;;;6.30;70.68;96697.22;6186515;23;20024;-84
2020/12/27 11:18:29;;;;;;;0.63;0.63;;;;;;;6.34;71.04;96682.91;6186622;23;20483;-84
2020/12/27 11:20:55;;;;;;;0.88;0.50;;;;;;;6.35;70.95;96692.38;6186580;23;20033;-84
2020/12/27 11:23:21;;;;;;;3.05;0.50;;;;;;;6.38;70.95;96658.16;6160229;23;20025;-84
2020/12/27 11:25:47;;;;;;;1.02;0.40;;;;;;;6.38;70.80;96644.25;6160130;23;20028;-83
2020/12/27 11:28:14;;;;;;;0.45;0.45;;;;;;;6.37;70.88;96653.91;6186410;23;20352;-84
2020/12/27 11:30:40;;;;;;;0.40;0.40;;;;;;;6.41;70.98;96651.00;6186925;23;20021;-85
2020/12/27 11:33:06;;;;;;;0.73;0.50;;;;;;;6.42;71.33;96631.78;6160369;23;20067;-84
2020/12/27 11:35:46;;;;;;;0.93;0.52;;;;;;;6.43;70.99;96628.19;6162935;23;20032;-84
2020/12/27 11:38:12;;;;;;;0.30;0.30;;;;;;;6.45;71.21;96636.69;6186038;23;20025;-84
2020/12/27 11:40:38;;;;;;;0.40;0.40;;;;;;;6.47;71.29;96595.59;6186300;23;20025;-84
2020/12/27 11:43:05;;;;;;;1.17;0.57;;;;;;;6.47;71.08;96598.19;6186711;23;20021;-86
2020/12/27 11:45:31;;;;;;;1.05;0.50;;;;;;;6.49;71.04;96610.16;6159730;23;20021;-85
2020/12/27 11:47:57;;;;;;;0.85;0.50;;;;;;;6.50;70.74;96596.13;6186080;23;20032;-84
2020/12/27 11:50:23;;;;;;;0.50;0.50;;;;;;;6.51;71.44;96574.25;6159864;23;20032;-83